createdAt,value
2018-06-30T00:01:24.846Z,69.70
2018-06-30T00:03:54.224Z,69.80
2018-06-30T00:06:24.379Z,69.50
2018-06-30T00:08:53.469Z,69.40
2018-06-30T00:11:22.157Z,69.20
2018-06-30T00:13:50.895Z,69.50
2018-06-30T00:16:20.029Z,69.30
2018-06-30T00:18:48.872Z,69.10
2018-06-30T00:21:17.470Z,69.30
2018-06-30T00:23:46.340Z,69.50
2018-06-30T00:26:15.080Z,69.60
2018-06-30T00:28:44.002Z,70.10
2018-06-30T00:31:13.078Z,69.50
2018-06-30T00:33:41.698Z,69.40
2018-06-30T00:38:39.071Z,69.50
2018-06-30T00:41:07.775Z,69.40
2018-06-30T00:43:36.406Z,69.30
2018-06-30T00:46:05.045Z,69.50
2018-06-30T00:48:33.720Z,69.40
2018-06-30T00:51:02.329Z,69.50
2018-06-30T00:53:31.142Z,69.30
2018-06-30T00:56:00.050Z,69.40
2018-06-30T00:58:28.735Z,69.60
2018-06-30T01:00:59.128Z,69.80
2018-06-30T01:03:29.323Z,70.10
2018-06-30T01:05:58.364Z,70.00
2018-06-30T01:08:26.966Z,69.80
2018-06-30T01:10:55.597Z,69.70
2018-06-30T01:13:24.200Z,69.80
2018-06-30T01:15:52.803Z,70.00
2018-06-30T01:18:21.349Z,70.00
2018-06-30T01:20:50.051Z,70.00
2018-06-30T01:23:18.619Z,69.40
2018-06-30T01:25:47.230Z,69.20
2018-06-30T01:28:15.781Z,69.10
2018-06-30T01:30:44.410Z,69.10
2018-06-30T01:33:12.948Z,69.40
2018-06-30T01:38:10.823Z,69.70
2018-06-30T01:40:39.743Z,69.70
2018-06-30T01:43:08.396Z,69.90
2018-06-30T01:45:37.404Z,69.80
2018-06-30T01:48:06.359Z,69.90
2018-06-30T01:50:34.978Z,70.10
2018-06-30T01:55:31.986Z,69.80
2018-06-30T01:58:00.722Z,69.50
2018-06-30T02:02:57.499Z,69.50
2018-06-30T02:07:54.370Z,69.60
2018-06-30T02:10:23.222Z,69.80
2018-06-30T02:12:51.770Z,69.60
2018-06-30T02:15:20.397Z,69.50
2018-06-30T02:17:49.340Z,70.40
2018-06-30T02:20:17.859Z,69.30
2018-06-30T02:22:46.392Z,68.80
2018-06-30T02:25:14.972Z,68.60
2018-06-30T02:27:43.621Z,68.70
2018-06-30T02:30:12.172Z,68.90
2018-06-30T02:32:40.999Z,69.10
2018-06-30T02:35:09.596Z,69.10
2018-06-30T02:37:38.184Z,69.20
2018-06-30T02:40:07.302Z,69.30
2018-06-30T02:42:35.859Z,69.40
2018-06-30T02:47:33.551Z,69.40
2018-06-30T02:50:02.130Z,69.10
2018-06-30T02:52:30.662Z,69.00
2018-06-30T02:54:59.408Z,68.90
2018-06-30T02:57:27.926Z,69.00
2018-06-30T02:59:56.467Z,69.20
2018-06-30T03:02:25.055Z,69.10
2018-06-30T03:04:53.617Z,69.00
2018-06-30T03:07:22.776Z,69.10
2018-06-30T03:09:51.678Z,69.50
2018-06-30T03:12:20.192Z,69.60
2018-06-30T03:14:48.827Z,69.60
2018-06-30T03:17:17.382Z,69.40
2018-06-30T03:19:46.003Z,69.00
2018-06-30T03:22:14.583Z,69.00
2018-06-30T03:24:43.571Z,69.00
2018-06-30T03:27:12.616Z,68.80
2018-06-30T03:29:41.202Z,68.70
2018-06-30T03:34:38.250Z,69.50
2018-06-30T03:37:06.963Z,68.70
2018-06-30T03:39:35.792Z,68.60
2018-06-30T03:42:04.340Z,68.70
2018-06-30T03:44:32.914Z,68.60
2018-06-30T03:47:01.694Z,68.60
2018-06-30T03:49:30.243Z,68.60
2018-06-30T03:51:58.801Z,69.00
2018-06-30T03:54:27.352Z,68.80
2018-06-30T03:56:56.033Z,68.80
2018-06-30T03:59:24.747Z,68.70
2018-06-30T04:01:53.763Z,68.90
2018-06-30T04:04:22.676Z,68.80
2018-06-30T04:06:51.177Z,68.80
2018-06-30T04:11:47.884Z,68.70
2018-06-30T04:14:16.452Z,69.00
2018-06-30T04:16:45.105Z,68.40
2018-06-30T04:19:15.711Z,68.50
2018-06-30T04:21:45.438Z,68.40
2018-06-30T04:24:14.456Z,68.40
2018-06-30T04:31:40.991Z,68.50
2018-06-30T04:34:09.919Z,68.50
2018-06-30T04:36:38.827Z,68.40
2018-06-30T04:39:09.061Z,68.40
2018-06-30T04:41:38.131Z,68.20
2018-06-30T04:44:06.931Z,68.00
2018-06-30T04:46:36.041Z,68.00
2018-06-30T04:49:04.945Z,68.20
2018-06-30T04:51:33.546Z,68.20
2018-06-30T04:54:02.143Z,68.20
2018-06-30T04:56:30.733Z,68.20
2018-06-30T04:58:59.422Z,68.20
2018-06-30T05:01:27.992Z,67.80
2018-06-30T05:03:56.587Z,67.90
2018-06-30T05:06:25.144Z,68.10
2018-06-30T05:08:54.138Z,68.20
2018-06-30T05:11:22.698Z,68.50
2018-06-30T05:13:52.135Z,68.50
2018-06-30T05:16:20.725Z,68.50
2018-06-30T05:18:49.658Z,68.40
2018-06-30T05:21:18.279Z,68.60
2018-06-30T05:23:46.903Z,68.40
2018-06-30T05:26:15.635Z,67.90
2018-06-30T05:28:44.339Z,67.40
2018-06-30T05:31:13.419Z,66.90
2018-06-30T05:33:42.467Z,66.40
2018-06-30T05:36:11.197Z,66.20
2018-06-30T05:38:39.767Z,66.40
2018-06-30T05:41:08.380Z,67.00
2018-06-30T05:46:05.738Z,67.00
2018-06-30T05:48:34.427Z,66.70
2018-06-30T05:51:03.011Z,66.50
2018-06-30T05:53:32.480Z,66.40
2018-06-30T05:56:01.443Z,66.30
2018-06-30T05:58:30.569Z,66.10
2018-06-30T06:00:59.531Z,66.00
2018-06-30T06:03:28.423Z,65.70
2018-06-30T06:05:57.571Z,65.60
2018-06-30T06:08:26.397Z,65.60
2018-06-30T06:10:55.193Z,65.10
2018-06-30T06:13:24.222Z,65.10
2018-06-30T06:15:53.490Z,65.30
2018-06-30T06:18:22.520Z,65.30
2018-06-30T06:20:51.406Z,65.30
2018-06-30T06:23:20.905Z,65.30
2018-06-30T06:28:18.290Z,65.00
2018-06-30T06:33:15.577Z,64.40
2018-06-30T06:35:44.513Z,64.50
2018-06-30T06:38:13.484Z,64.90
2018-06-30T06:40:42.594Z,64.20
2018-06-30T06:43:11.425Z,64.20
2018-06-30T06:45:40.295Z,63.70
2018-06-30T06:48:09.003Z,63.40
2018-06-30T06:50:38.052Z,63.10
2018-06-30T06:53:07.210Z,62.40
2018-06-30T06:55:35.821Z,61.60
2018-06-30T06:58:04.726Z,61.00
2018-06-30T07:00:33.454Z,60.70
2018-06-30T07:03:02.472Z,59.80
2018-06-30T07:05:31.038Z,59.30
2018-06-30T07:10:28.103Z,59.30
2018-06-30T07:12:56.739Z,58.40
2018-06-30T07:15:26.292Z,57.80
2018-06-30T07:17:54.964Z,57.60
2018-06-30T07:20:23.567Z,57.60
2018-06-30T07:22:52.304Z,57.30
2018-06-30T07:25:21.488Z,57.10
2018-06-30T07:27:50.219Z,57.00
2018-06-30T07:30:18.891Z,56.70
2018-06-30T07:32:47.675Z,56.50
2018-06-30T07:35:16.537Z,56.10
2018-06-30T07:37:45.462Z,55.30
2018-06-30T07:40:14.380Z,54.70
2018-06-30T07:42:43.107Z,54.40
2018-06-30T07:45:12.289Z,54.40
2018-06-30T07:47:40.951Z,53.60
2018-06-30T07:50:09.955Z,53.10
2018-06-30T07:52:38.597Z,52.80
2018-06-30T07:55:07.220Z,52.30
2018-06-30T07:57:36.095Z,51.80
2018-06-30T08:00:04.930Z,51.60
2018-06-30T08:02:33.444Z,51.00
2018-06-30T08:05:02.077Z,51.10
2018-06-30T08:07:30.759Z,50.90
2018-06-30T08:09:59.455Z,50.80
2018-06-30T08:12:28.235Z,50.60
2018-06-30T08:14:56.830Z,50.50
2018-06-30T08:17:25.692Z,50.50
2018-06-30T08:19:54.345Z,49.90
2018-06-30T08:22:23.318Z,49.20
2018-06-30T08:24:51.957Z,49.30
2018-06-30T08:27:20.843Z,50.30
2018-06-30T08:29:50.249Z,49.80
2018-06-30T08:32:18.951Z,49.30
2018-06-30T08:34:47.691Z,49.30
2018-06-30T08:37:16.467Z,49.50
2018-06-30T08:39:45.212Z,48.60
2018-06-30T08:42:13.864Z,48.40
2018-06-30T08:44:42.991Z,49.90
2018-06-30T08:47:11.677Z,47.80
2018-06-30T08:49:40.470Z,47.80
2018-06-30T08:54:37.538Z,48.10
2018-06-30T08:57:06.692Z,47.60
2018-06-30T08:59:35.593Z,48.00
2018-06-30T09:02:04.335Z,47.80
2018-06-30T09:04:32.954Z,48.70
2018-06-30T09:07:01.780Z,48.30
2018-06-30T09:09:30.630Z,47.40
2018-06-30T09:11:59.396Z,47.00
2018-06-30T09:14:29.487Z,46.90
2018-06-30T09:19:26.649Z,47.20
2018-06-30T09:21:56.953Z,47.30
2018-06-30T09:24:25.617Z,47.10
2018-06-30T09:26:54.391Z,47.90
2018-06-30T09:29:23.126Z,48.20
2018-06-30T09:31:51.901Z,47.70
2018-06-30T09:34:21.004Z,48.10
2018-06-30T09:36:49.772Z,48.60
2018-06-30T09:39:18.410Z,48.60
2018-06-30T09:41:47.074Z,48.10
2018-06-30T09:44:15.758Z,48.00
2018-06-30T09:46:44.343Z,48.30
2018-06-30T09:49:13.083Z,47.70
2018-06-30T09:51:42.139Z,47.50
2018-06-30T09:54:11.086Z,46.80
2018-06-30T09:56:39.909Z,47.50
2018-06-30T09:59:08.746Z,46.90
2018-06-30T10:01:37.721Z,45.90
2018-06-30T10:04:06.392Z,47.00
2018-06-30T10:06:35.171Z,45.90
2018-06-30T10:09:06.702Z,46.40
2018-06-30T10:14:03.958Z,46.30
2018-06-30T10:16:32.632Z,45.90
2018-06-30T10:19:01.467Z,45.80
2018-06-30T10:23:58.539Z,44.80
2018-06-30T10:26:27.246Z,44.50
2018-06-30T10:28:56.167Z,44.80
2018-06-30T10:31:24.852Z,45.10
2018-06-30T10:33:53.562Z,46.50
2018-06-30T10:36:23.798Z,44.90
2018-06-30T10:38:52.773Z,45.00
2018-06-30T10:41:21.409Z,44.10
2018-06-30T10:43:50.009Z,43.20
2018-06-30T10:46:18.735Z,45.10
2018-06-30T10:48:47.359Z,45.00
2018-06-30T10:51:16.019Z,44.50
2018-06-30T10:53:44.774Z,44.40
2018-06-30T10:56:13.436Z,45.10
2018-06-30T10:58:42.064Z,45.10
2018-06-30T11:01:10.688Z,45.60
2018-06-30T11:03:39.286Z,44.60
2018-06-30T11:06:07.977Z,45.70
2018-06-30T11:08:36.606Z,45.30
2018-06-30T11:11:05.418Z,44.20
2018-06-30T11:13:34.426Z,43.80
2018-06-30T11:16:03.176Z,44.70
2018-06-30T11:18:31.928Z,44.50
2018-06-30T11:21:01.110Z,45.30
2018-06-30T11:23:29.784Z,45.20
2018-06-30T11:25:58.679Z,44.90
2018-06-30T11:28:27.701Z,44.70
2018-06-30T11:30:56.331Z,44.80
2018-06-30T11:33:25.020Z,43.00
2018-06-30T11:35:54.604Z,45.40
2018-06-30T11:38:23.235Z,43.70
2018-06-30T11:40:52.404Z,42.50
2018-06-30T11:43:21.400Z,45.10
2018-06-30T11:50:47.604Z,44.50
2018-06-30T11:53:16.545Z,42.60
2018-06-30T11:55:45.604Z,43.80
2018-06-30T11:58:14.296Z,43.80
2018-06-30T12:00:43.351Z,42.60
2018-06-30T12:05:40.643Z,41.80
2018-06-30T12:08:09.272Z,42.70
2018-06-30T12:10:38.575Z,43.50
2018-06-30T12:13:07.221Z,43.40
2018-06-30T12:15:36.129Z,42.30
2018-06-30T12:18:05.652Z,43.80
2018-06-30T12:20:34.640Z,43.40
2018-06-30T12:23:03.307Z,44.10
2018-06-30T12:25:31.890Z,44.30
2018-06-30T12:28:01.042Z,44.80
2018-06-30T12:30:29.659Z,44.00
2018-06-30T12:32:58.252Z,44.30
2018-06-30T12:35:26.785Z,43.20
2018-06-30T12:37:55.554Z,44.10
2018-06-30T12:40:24.215Z,44.10
2018-06-30T12:42:52.996Z,44.30
2018-06-30T12:45:21.665Z,43.80
2018-06-30T12:47:50.351Z,43.60
2018-06-30T12:50:19.293Z,43.90
2018-06-30T12:52:48.106Z,44.60
2018-06-30T12:55:16.868Z,44.40
2018-06-30T12:57:45.744Z,44.40
2018-06-30T13:00:14.578Z,44.70
2018-06-30T13:02:43.736Z,44.90
2018-06-30T13:05:12.371Z,44.10
2018-06-30T13:07:41.075Z,44.20
2018-06-30T13:10:10.175Z,43.50
2018-06-30T13:12:38.907Z,43.50
2018-06-30T13:15:07.544Z,44.10
2018-06-30T13:17:36.396Z,44.40
2018-06-30T13:20:05.751Z,45.30
2018-06-30T13:22:34.295Z,44.50
2018-06-30T13:25:02.975Z,44.90
2018-06-30T13:27:31.791Z,44.60
2018-06-30T13:30:00.600Z,44.90
2018-06-30T13:32:29.237Z,43.70
2018-06-30T13:34:58.306Z,44.30
2018-06-30T13:37:27.014Z,44.80
2018-06-30T13:39:56.005Z,45.20
2018-06-30T13:42:25.135Z,44.50
2018-06-30T13:44:54.208Z,44.40
2018-06-30T13:47:23.208Z,44.00
2018-06-30T13:49:51.793Z,44.20
2018-06-30T13:52:20.676Z,44.10
2018-06-30T13:54:49.343Z,44.50
2018-06-30T13:57:19.407Z,44.40
2018-06-30T13:59:48.931Z,44.90
2018-06-30T14:02:17.596Z,44.60
2018-06-30T14:04:46.138Z,44.40
2018-06-30T14:07:14.804Z,43.80
2018-06-30T14:09:43.404Z,44.20
2018-06-30T14:12:12.215Z,43.60
2018-06-30T14:14:40.882Z,44.30
2018-06-30T14:17:09.460Z,44.40
2018-06-30T14:19:38.048Z,44.60
2018-06-30T14:22:07.108Z,44.80
2018-06-30T14:24:36.049Z,44.70
2018-06-30T14:27:04.821Z,45.70
2018-06-30T14:32:01.752Z,45.10
2018-06-30T14:34:30.400Z,45.40
2018-06-30T14:36:59.064Z,45.10
2018-06-30T14:39:27.665Z,45.00
2018-06-30T14:41:56.641Z,45.20
2018-06-30T14:44:28.392Z,44.70
2018-06-30T14:46:57.112Z,45.00
2018-06-30T14:49:25.680Z,45.20
2018-06-30T14:51:54.351Z,45.20
2018-06-30T14:54:22.939Z,46.10
2018-06-30T14:56:51.621Z,45.10
2018-06-30T14:59:20.718Z,45.50
2018-06-30T15:01:49.872Z,45.90
2018-06-30T15:04:18.524Z,45.80
2018-06-30T15:06:47.143Z,45.00
2018-06-30T15:09:16.423Z,45.40
2018-06-30T15:11:45.875Z,45.10
2018-06-30T15:14:16.015Z,45.30
2018-06-30T15:16:44.558Z,45.60
2018-06-30T15:19:13.504Z,44.90
2018-06-30T15:21:42.256Z,44.50
2018-06-30T15:24:10.780Z,45.00
2018-06-30T15:26:39.407Z,45.00
2018-06-30T15:29:07.981Z,45.70
2018-06-30T15:31:36.633Z,45.30
2018-06-30T15:34:05.406Z,45.30
2018-06-30T15:36:34.382Z,46.00
2018-06-30T15:39:03.051Z,45.00
2018-06-30T15:41:32.060Z,45.80
2018-06-30T15:44:00.640Z,46.20
2018-06-30T15:46:29.226Z,45.60
2018-06-30T15:48:57.757Z,45.40
2018-06-30T15:51:26.344Z,45.30
2018-06-30T15:53:55.075Z,45.00
2018-06-30T15:56:23.585Z,44.90
2018-06-30T15:58:52.211Z,44.80
2018-06-30T16:01:21.459Z,45.00
2018-06-30T16:03:50.050Z,44.10
2018-06-30T16:08:47.172Z,45.60
2018-06-30T16:11:15.783Z,45.10
2018-06-30T16:13:44.851Z,44.80
2018-06-30T16:16:13.809Z,44.80
2018-06-30T16:18:42.363Z,44.80
2018-06-30T16:21:12.419Z,44.80
2018-06-30T16:23:41.111Z,45.20
2018-06-30T16:26:10.026Z,44.60
2018-06-30T16:28:38.738Z,44.70
2018-06-30T16:31:08.095Z,44.10
2018-06-30T16:33:37.050Z,44.30
2018-06-30T16:36:05.732Z,44.40
2018-06-30T16:41:02.656Z,44.60
2018-06-30T16:43:31.336Z,44.60
2018-06-30T16:45:59.895Z,45.00
2018-06-30T16:48:29.363Z,45.00
2018-06-30T16:50:58.255Z,44.90
2018-06-30T16:53:26.819Z,45.40
2018-06-30T16:55:55.476Z,44.70
2018-06-30T16:58:24.048Z,45.10
2018-06-30T17:00:52.627Z,44.70
2018-06-30T17:03:21.235Z,44.70
2018-06-30T17:05:50.068Z,45.50
2018-06-30T17:08:19.178Z,44.90
2018-06-30T17:10:47.768Z,44.40
2018-06-30T17:13:16.300Z,44.70
2018-06-30T17:15:45.013Z,44.60
2018-06-30T17:20:42.098Z,44.60
2018-06-30T17:23:10.719Z,44.20
2018-06-30T17:25:39.280Z,44.10
2018-06-30T17:28:07.935Z,44.40
2018-06-30T17:30:36.714Z,44.30
2018-06-30T17:33:05.754Z,43.50
2018-06-30T17:35:34.990Z,43.80
2018-06-30T17:38:03.883Z,44.20
2018-06-30T17:40:32.479Z,44.30
2018-06-30T17:45:29.283Z,43.80
2018-06-30T17:47:58.528Z,43.70
2018-06-30T17:50:27.552Z,43.80
2018-06-30T17:52:56.124Z,45.30
2018-06-30T17:55:24.859Z,44.80
2018-06-30T17:57:53.763Z,44.00
2018-06-30T18:00:22.843Z,44.20
2018-06-30T18:02:51.594Z,44.90
2018-06-30T18:05:20.388Z,44.50
2018-06-30T18:10:18.122Z,44.20
2018-06-30T18:12:47.004Z,44.10
2018-06-30T18:15:16.086Z,44.10
2018-06-30T18:17:45.462Z,44.60
2018-06-30T18:20:14.291Z,45.10
2018-06-30T18:22:43.032Z,45.10
2018-06-30T18:25:11.658Z,44.30
2018-06-30T18:27:40.346Z,43.60
2018-06-30T18:30:09.440Z,44.00
2018-06-30T18:32:38.126Z,42.80
2018-06-30T18:35:07.387Z,43.30
2018-06-30T18:37:36.084Z,43.00
2018-06-30T18:40:05.377Z,43.70
2018-06-30T18:42:34.468Z,43.30
2018-06-30T18:45:03.272Z,42.30
2018-06-30T18:47:32.002Z,43.60
2018-06-30T18:50:00.773Z,44.50
2018-06-30T18:52:29.509Z,44.10
2018-06-30T18:54:58.553Z,44.30
2018-06-30T18:57:27.253Z,44.30
2018-06-30T18:59:55.953Z,44.40
2018-06-30T19:02:24.679Z,45.00
2018-06-30T19:04:53.316Z,43.70
2018-06-30T19:07:22.415Z,44.00
2018-06-30T19:09:50.967Z,44.10
2018-06-30T19:12:20.352Z,44.80
2018-06-30T19:14:49.437Z,44.40
2018-06-30T19:17:18.054Z,45.10
2018-06-30T19:19:46.861Z,44.60
2018-06-30T19:22:15.445Z,45.60
2018-06-30T19:24:44.179Z,44.30
2018-06-30T19:27:12.822Z,43.10
2018-06-30T19:29:41.885Z,42.80
2018-06-30T19:32:10.521Z,43.00
2018-06-30T19:34:39.088Z,44.20
2018-06-30T19:37:07.859Z,44.20
2018-06-30T19:39:36.766Z,43.40
2018-06-30T19:42:05.659Z,42.90
2018-06-30T19:44:34.446Z,43.10
2018-06-30T19:47:03.083Z,43.70
2018-06-30T19:49:31.682Z,42.50
2018-06-30T19:52:00.695Z,43.80
2018-06-30T19:54:29.604Z,43.70
2018-06-30T19:56:58.308Z,44.70
2018-06-30T19:59:27.566Z,43.60
2018-06-30T20:01:56.115Z,43.60
2018-06-30T20:04:24.982Z,42.50
2018-06-30T20:06:53.815Z,41.70
2018-06-30T20:09:22.826Z,41.50
2018-06-30T20:11:51.535Z,42.80
2018-06-30T20:14:20.324Z,41.30
2018-06-30T20:16:48.927Z,41.80
2018-06-30T20:19:17.436Z,42.10
2018-06-30T20:21:46.162Z,40.60
2018-06-30T20:24:15.106Z,41.50
2018-06-30T20:26:43.648Z,42.40
2018-06-30T20:29:12.272Z,42.40
2018-06-30T20:31:40.819Z,41.40
2018-06-30T20:34:09.574Z,42.10
2018-06-30T20:36:38.189Z,42.70
2018-06-30T20:39:08.523Z,41.80
2018-06-30T20:41:38.006Z,41.80
2018-06-30T20:44:06.682Z,40.60
2018-06-30T20:46:49.820Z,39.00
2018-06-30T20:49:18.535Z,39.90
2018-06-30T20:51:47.149Z,39.60
2018-06-30T20:54:15.847Z,40.10
2018-06-30T20:56:44.427Z,40.10
2018-06-30T20:59:13.013Z,40.00
2018-06-30T21:01:41.696Z,40.10
2018-06-30T21:04:10.503Z,40.80
2018-06-30T21:06:39.663Z,40.60
2018-06-30T21:09:09.715Z,40.80
2018-06-30T21:11:38.779Z,40.70
2018-06-30T21:14:07.489Z,39.70
2018-06-30T21:16:36.071Z,39.60
2018-06-30T21:19:04.829Z,39.50
2018-06-30T21:21:34.122Z,39.00
2018-06-30T21:24:02.811Z,39.20
2018-06-30T21:26:31.442Z,39.90
2018-06-30T21:28:59.977Z,38.90
2018-06-30T21:31:28.777Z,39.10
2018-06-30T21:33:57.459Z,38.10
2018-06-30T21:36:26.659Z,36.40
2018-06-30T21:38:55.521Z,37.50
2018-06-30T21:41:24.510Z,37.30
2018-06-30T21:43:53.886Z,37.10
2018-06-30T21:46:22.722Z,36.30
2018-06-30T21:48:51.623Z,37.20
2018-06-30T21:51:20.261Z,37.70
2018-06-30T21:53:49.324Z,37.30
2018-06-30T21:56:17.962Z,37.10
2018-06-30T21:58:46.599Z,36.30
2018-06-30T22:01:20.333Z,37.00
2018-06-30T22:03:49.087Z,37.70
2018-06-30T22:06:17.961Z,37.60
2018-06-30T22:08:46.479Z,38.20
2018-06-30T22:11:15.271Z,37.40
2018-06-30T22:13:44.072Z,37.50
2018-06-30T22:16:12.628Z,38.00
2018-06-30T22:18:41.961Z,37.90
2018-06-30T22:21:10.955Z,38.10
2018-06-30T22:23:40.133Z,38.50
2018-06-30T22:26:08.713Z,38.20
2018-06-30T22:28:37.248Z,39.00
2018-06-30T22:31:05.840Z,39.10
2018-06-30T22:33:34.385Z,38.70
2018-06-30T22:36:02.989Z,38.90
2018-06-30T22:38:31.520Z,38.70
2018-06-30T22:41:00.034Z,39.10
2018-06-30T22:43:29.011Z,38.70
2018-06-30T22:45:57.555Z,39.00
2018-06-30T22:48:26.845Z,39.20
2018-06-30T22:50:55.428Z,39.10
2018-06-30T22:58:20.679Z,39.30
2018-06-30T23:00:49.242Z,39.50
2018-06-30T23:03:18.313Z,39.00
2018-06-30T23:05:47.409Z,40.00
2018-06-30T23:08:15.999Z,39.30
2018-06-30T23:10:45.074Z,39.70
2018-06-30T23:13:13.597Z,39.70
2018-06-30T23:15:42.134Z,39.70
2018-06-30T23:18:10.898Z,40.00
2018-06-30T23:20:39.429Z,39.80
2018-06-30T23:23:09.182Z,40.20
2018-06-30T23:25:38.331Z,40.00
2018-06-30T23:28:07.236Z,40.40
2018-06-30T23:30:36.363Z,40.30
2018-06-30T23:33:05.006Z,40.00
2018-06-30T23:35:34.262Z,40.00
2018-06-30T23:38:03.576Z,39.80
2018-06-30T23:40:32.218Z,40.30
2018-06-30T23:43:00.751Z,40.60
2018-06-30T23:45:29.711Z,40.00
2018-06-30T23:47:58.293Z,39.70
2018-06-30T23:52:55.256Z,39.40
2018-06-30T23:55:23.880Z,39.20
2018-06-30T23:57:52.515Z,39.00
